sensor_id;sensor_type;location;lat;lon;timestamp;temperature;humidity
8910;DHT22;4490;49.072;8.804;2024-03-29T00:00:42;10.00;65.40
8910;DHT22;4490;49.072;8.804;2024-03-29T00:03:08;10.00;66.00
8910;DHT22;4490;49.072;8.804;2024-03-29T00:05:34;10.10;65.10
8910;DHT22;4490;49.072;8.804;2024-03-29T00:08:00;10.10;65.20
8910;DHT22;4490;49.072;8.804;2024-03-29T00:10:25;10.10;65.00
8910;DHT22;4490;49.072;8.804;2024-03-29T00:12:51;10.10;64.80
8910;DHT22;4490;49.072;8.804;2024-03-29T00:15:17;10.20;64.80
8910;DHT22;4490;49.072;8.804;2024-03-29T00:17:42;10.20;64.80
8910;DHT22;4490;49.072;8.804;2024-03-29T00:20:08;10.20;64.80
8910;DHT22;4490;49.072;8.804;2024-03-29T00:22:34;10.20;64.70
8910;DHT22;4490;49.072;8.804;2024-03-29T00:25:00;10.20;64.50
8910;DHT22;4490;49.072;8.804;2024-03-29T00:27:26;10.20;64.40
8910;DHT22;4490;49.072;8.804;2024-03-29T00:29:53;10.20;64.20
8910;DHT22;4490;49.072;8.804;2024-03-29T00:32:22;10.20;64.30
8910;DHT22;4490;49.072;8.804;2024-03-29T00:34:50;10.20;64.20
8910;DHT22;4490;49.072;8.804;2024-03-29T00:37:16;10.20;64.00
8910;DHT22;4490;49.072;8.804;2024-03-29T00:39:41;10.20;64.10
8910;DHT22;4490;49.072;8.804;2024-03-29T00:42:07;10.20;63.90
8910;DHT22;4490;49.072;8.804;2024-03-29T00:44:38;10.20;64.20
8910;DHT22;4490;49.072;8.804;2024-03-29T00:47:05;10.20;64.20
8910;DHT22;4490;49.072;8.804;2024-03-29T00:49:30;10.20;64.00
8910;DHT22;4490;49.072;8.804;2024-03-29T00:51:56;10.20;64.30
8910;DHT22;4490;49.072;8.804;2024-03-29T00:54:22;10.30;64.30
8910;DHT22;4490;49.072;8.804;2024-03-29T00:56:49;10.30;64.50
8910;DHT22;4490;49.072;8.804;2024-03-29T00:59:15;10.30;64.40
8910;DHT22;4490;49.072;8.804;2024-03-29T01:01:41;10.30;64.40
8910;DHT22;4490;49.072;8.804;2024-03-29T01:04:07;10.30;64.40
8910;DHT22;4490;49.072;8.804;2024-03-29T01:06:32;10.30;64.50
8910;DHT22;4490;49.072;8.804;2024-03-29T01:08:58;10.40;64.80
8910;DHT22;4490;49.072;8.804;2024-03-29T01:11:23;10.40;64.60
8910;DHT22;4490;49.072;8.804;2024-03-29T01:13:49;10.40;64.70
8910;DHT22;4490;49.072;8.804;2024-03-29T01:16:14;10.40;64.70
8910;DHT22;4490;49.072;8.804;2024-03-29T01:18:40;10.40;64.70
8910;DHT22;4490;49.072;8.804;2024-03-29T01:21:08;10.40;65.00
8910;DHT22;4490;49.072;8.804;2024-03-29T01:23:34;10.40;64.80
8910;DHT22;4490;49.072;8.804;2024-03-29T01:26:00;10.40;64.80
8910;DHT22;4490;49.072;8.804;2024-03-29T01:28:25;10.50;64.90
8910;DHT22;4490;49.072;8.804;2024-03-29T01:30:52;10.50;65.00
8910;DHT22;4490;49.072;8.804;2024-03-29T01:33:18;10.50;65.10
8910;DHT22;4490;49.072;8.804;2024-03-29T01:35:44;10.50;65.20
8910;DHT22;4490;49.072;8.804;2024-03-29T01:38:09;10.50;65.40
8910;DHT22;4490;49.072;8.804;2024-03-29T01:40:35;10.60;65.50
8910;DHT22;4490;49.072;8.804;2024-03-29T01:43:01;10.60;65.40
8910;DHT22;4490;49.072;8.804;2024-03-29T01:45:27;10.50;65.30
8910;DHT22;4490;49.072;8.804;2024-03-29T01:47:53;10.50;65.40
8910;DHT22;4490;49.072;8.804;2024-03-29T01:50:19;10.60;65.40
8910;DHT22;4490;49.072;8.804;2024-03-29T01:52:45;10.60;65.50
8910;DHT22;4490;49.072;8.804;2024-03-29T01:55:11;10.60;65.50
8910;DHT22;4490;49.072;8.804;2024-03-29T01:57:37;10.60;65.50
8910;DHT22;4490;49.072;8.804;2024-03-29T02:00:04;10.60;66.20
8910;DHT22;4490;49.072;8.804;2024-03-29T02:02:32;10.70;65.60
8910;DHT22;4490;49.072;8.804;2024-03-29T02:04:58;10.70;65.40
8910;DHT22;4490;49.072;8.804;2024-03-29T02:07:25;10.70;65.70
8910;DHT22;4490;49.072;8.804;2024-03-29T02:09:50;10.70;65.50
8910;DHT22;4490;49.072;8.804;2024-03-29T02:12:16;10.70;65.60
8910;DHT22;4490;49.072;8.804;2024-03-29T02:14:42;10.70;65.70
8910;DHT22;4490;49.072;8.804;2024-03-29T02:17:08;10.70;65.50
8910;DHT22;4490;49.072;8.804;2024-03-29T02:19:34;10.70;65.50
8910;DHT22;4490;49.072;8.804;2024-03-29T02:22:01;10.70;65.40
8910;DHT22;4490;49.072;8.804;2024-03-29T02:24:30;10.70;65.40
8910;DHT22;4490;49.072;8.804;2024-03-29T02:26:56;10.80;65.60
8910;DHT22;4490;49.072;8.804;2024-03-29T02:29:23;10.80;65.60
8910;DHT22;4490;49.072;8.804;2024-03-29T02:31:49;10.80;65.60
8910;DHT22;4490;49.072;8.804;2024-03-29T02:34:14;10.80;65.60
8910;DHT22;4490;49.072;8.804;2024-03-29T02:36:40;10.80;65.60
8910;DHT22;4490;49.072;8.804;2024-03-29T02:39:08;10.80;65.50
8910;DHT22;4490;49.072;8.804;2024-03-29T02:41:33;10.80;65.60
8910;DHT22;4490;49.072;8.804;2024-03-29T02:43:59;10.80;65.60
8910;DHT22;4490;49.072;8.804;2024-03-29T02:46:25;10.80;65.60
8910;DHT22;4490;49.072;8.804;2024-03-29T02:48:50;10.80;65.60
8910;DHT22;4490;49.072;8.804;2024-03-29T02:51:16;10.80;65.40
8910;DHT22;4490;49.072;8.804;2024-03-29T02:53:41;10.80;65.50
8910;DHT22;4490;49.072;8.804;2024-03-29T02:56:07;10.80;65.50
8910;DHT22;4490;49.072;8.804;2024-03-29T02:58:34;10.80;65.70
8910;DHT22;4490;49.072;8.804;2024-03-29T03:01:07;10.80;65.70
8910;DHT22;4490;49.072;8.804;2024-03-29T03:03:35;10.80;65.70
8910;DHT22;4490;49.072;8.804;2024-03-29T03:06:01;10.80;65.50
8910;DHT22;4490;49.072;8.804;2024-03-29T03:08:26;10.80;65.50
8910;DHT22;4490;49.072;8.804;2024-03-29T03:11:12;10.80;65.60
8910;DHT22;4490;49.072;8.804;2024-03-29T03:13:38;10.90;65.50
8910;DHT22;4490;49.072;8.804;2024-03-29T03:16:04;10.90;65.60
8910;DHT22;4490;49.072;8.804;2024-03-29T03:18:29;10.90;65.60
8910;DHT22;4490;49.072;8.804;2024-03-29T03:20:56;10.90;65.60
8910;DHT22;4490;49.072;8.804;2024-03-29T03:23:23;10.90;65.70
8910;DHT22;4490;49.072;8.804;2024-03-29T03:25:57;10.90;65.70
8910;DHT22;4490;49.072;8.804;2024-03-29T03:28:23;10.90;65.50
8910;DHT22;4490;49.072;8.804;2024-03-29T03:30:50;10.80;65.50
8910;DHT22;4490;49.072;8.804;2024-03-29T03:33:16;10.80;65.50
8910;DHT22;4490;49.072;8.804;2024-03-29T03:35:42;10.80;65.50
8910;DHT22;4490;49.072;8.804;2024-03-29T03:38:08;10.90;65.70
8910;DHT22;4490;49.072;8.804;2024-03-29T03:40:35;10.90;65.60
8910;DHT22;4490;49.072;8.804;2024-03-29T03:43:02;10.90;65.30
8910;DHT22;4490;49.072;8.804;2024-03-29T03:45:27;11.00;65.40
8910;DHT22;4490;49.072;8.804;2024-03-29T03:47:53;11.00;65.50
8910;DHT22;4490;49.072;8.804;2024-03-29T03:50:19;11.00;65.70
8910;DHT22;4490;49.072;8.804;2024-03-29T03:52:44;11.00;66.00
8910;DHT22;4490;49.072;8.804;2024-03-29T03:55:10;11.00;65.80
8910;DHT22;4490;49.072;8.804;2024-03-29T03:57:35;11.00;65.80
8910;DHT22;4490;49.072;8.804;2024-03-29T04:00:01;11.00;65.00
8910;DHT22;4490;49.072;8.804;2024-03-29T04:02:28;11.00;65.50
8910;DHT22;4490;49.072;8.804;2024-03-29T04:04:54;10.90;65.70
8910;DHT22;4490;49.072;8.804;2024-03-29T04:07:20;11.00;66.30
8910;DHT22;4490;49.072;8.804;2024-03-29T04:09:45;11.00;66.70
8910;DHT22;4490;49.072;8.804;2024-03-29T04:12:11;11.00;67.80
8910;DHT22;4490;49.072;8.804;2024-03-29T04:14:37;11.00;67.60
8910;DHT22;4490;49.072;8.804;2024-03-29T04:17:02;11.00;68.40
8910;DHT22;4490;49.072;8.804;2024-03-29T04:19:28;11.00;69.00
8910;DHT22;4490;49.072;8.804;2024-03-29T04:21:54;11.00;68.90
8910;DHT22;4490;49.072;8.804;2024-03-29T04:24:19;10.90;68.80
8910;DHT22;4490;49.072;8.804;2024-03-29T04:26:45;10.90;68.80
8910;DHT22;4490;49.072;8.804;2024-03-29T04:29:12;10.90;69.00
8910;DHT22;4490;49.072;8.804;2024-03-29T04:31:38;10.90;70.10
8910;DHT22;4490;49.072;8.804;2024-03-29T04:34:04;10.90;70.70
8910;DHT22;4490;49.072;8.804;2024-03-29T04:36:29;10.90;70.90
8910;DHT22;4490;49.072;8.804;2024-03-29T04:38:55;10.90;71.00
8910;DHT22;4490;49.072;8.804;2024-03-29T04:41:20;10.80;71.10
8910;DHT22;4490;49.072;8.804;2024-03-29T04:43:46;10.80;71.10
8910;DHT22;4490;49.072;8.804;2024-03-29T04:46:13;10.80;71.40
8910;DHT22;4490;49.072;8.804;2024-03-29T04:48:40;10.80;71.00
8910;DHT22;4490;49.072;8.804;2024-03-29T04:51:07;10.80;71.80
8910;DHT22;4490;49.072;8.804;2024-03-29T04:53:32;10.80;71.90
8910;DHT22;4490;49.072;8.804;2024-03-29T04:55:58;10.80;71.80
8910;DHT22;4490;49.072;8.804;2024-03-29T04:58:25;10.80;71.60
8910;DHT22;4490;49.072;8.804;2024-03-29T05:00:51;10.80;71.30
8910;DHT22;4490;49.072;8.804;2024-03-29T05:03:18;10.80;70.60
8910;DHT22;4490;49.072;8.804;2024-03-29T05:05:44;10.80;70.70
8910;DHT22;4490;49.072;8.804;2024-03-29T05:08:10;10.80;70.50
8910;DHT22;4490;49.072;8.804;2024-03-29T05:10:35;10.70;70.10
8910;DHT22;4490;49.072;8.804;2024-03-29T05:13:01;10.70;70.10
8910;DHT22;4490;49.072;8.804;2024-03-29T05:15:27;10.70;69.30
8910;DHT22;4490;49.072;8.804;2024-03-29T05:17:52;10.70;69.70
8910;DHT22;4490;49.072;8.804;2024-03-29T05:20:19;10.70;69.50
8910;DHT22;4490;49.072;8.804;2024-03-29T05:22:44;10.70;69.60
8910;DHT22;4490;49.072;8.804;2024-03-29T05:25:10;10.80;69.40
8910;DHT22;4490;49.072;8.804;2024-03-29T05:27:35;10.80;68.90
8910;DHT22;4490;49.072;8.804;2024-03-29T05:30:02;10.80;69.00
8910;DHT22;4490;49.072;8.804;2024-03-29T05:32:29;10.90;69.50
8910;DHT22;4490;49.072;8.804;2024-03-29T05:34:54;10.80;69.00
8910;DHT22;4490;49.072;8.804;2024-03-29T05:37:20;10.80;68.90
8910;DHT22;4490;49.072;8.804;2024-03-29T05:39:47;10.80;68.30
8910;DHT22;4490;49.072;8.804;2024-03-29T05:42:13;10.90;68.40
8910;DHT22;4490;49.072;8.804;2024-03-29T05:44:39;10.80;68.30
8910;DHT22;4490;49.072;8.804;2024-03-29T05:47:04;10.90;68.00
8910;DHT22;4490;49.072;8.804;2024-03-29T05:49:31;10.90;68.00
8910;DHT22;4490;49.072;8.804;2024-03-29T05:51:57;10.90;68.10
8910;DHT22;4490;49.072;8.804;2024-03-29T05:54:23;10.90;68.20
8910;DHT22;4490;49.072;8.804;2024-03-29T05:56:48;10.90;68.60
8910;DHT22;4490;49.072;8.804;2024-03-29T05:59:14;10.90;68.90
8910;DHT22;4490;49.072;8.804;2024-03-29T06:01:39;10.90;68.30
8910;DHT22;4490;49.072;8.804;2024-03-29T06:04:05;10.90;68.20
8910;DHT22;4490;49.072;8.804;2024-03-29T06:06:39;10.90;68.20
8910;DHT22;4490;49.072;8.804;2024-03-29T06:09:05;10.90;68.20
8910;DHT22;4490;49.072;8.804;2024-03-29T06:11:30;11.00;68.50
8910;DHT22;4490;49.072;8.804;2024-03-29T06:13:56;11.00;68.50
8910;DHT22;4490;49.072;8.804;2024-03-29T06:16:25;11.00;68.40
8910;DHT22;4490;49.072;8.804;2024-03-29T06:19:10;11.00;68.20
8910;DHT22;4490;49.072;8.804;2024-03-29T06:21:35;11.00;68.20
8910;DHT22;4490;49.072;8.804;2024-03-29T06:24:06;10.90;67.60
8910;DHT22;4490;49.072;8.804;2024-03-29T06:26:32;11.00;67.70
8910;DHT22;4490;49.072;8.804;2024-03-29T06:28:58;11.00;67.60
8910;DHT22;4490;49.072;8.804;2024-03-29T06:31:23;11.00;67.90
8910;DHT22;4490;49.072;8.804;2024-03-29T06:33:49;11.10;68.30
8910;DHT22;4490;49.072;8.804;2024-03-29T06:36:14;11.10;68.10
8910;DHT22;4490;49.072;8.804;2024-03-29T06:38:40;11.10;67.90
8910;DHT22;4490;49.072;8.804;2024-03-29T06:41:06;11.10;67.70
8910;DHT22;4490;49.072;8.804;2024-03-29T06:43:31;11.20;68.20
8910;DHT22;4490;49.072;8.804;2024-03-29T06:45:57;11.20;67.50
8910;DHT22;4490;49.072;8.804;2024-03-29T06:48:24;11.20;67.20
8910;DHT22;4490;49.072;8.804;2024-03-29T06:50:49;11.30;67.30
8910;DHT22;4490;49.072;8.804;2024-03-29T06:53:15;11.30;67.20
8910;DHT22;4490;49.072;8.804;2024-03-29T06:55:41;11.30;66.60
8910;DHT22;4490;49.072;8.804;2024-03-29T06:58:07;11.40;66.30
8910;DHT22;4490;49.072;8.804;2024-03-29T07:00:32;11.50;66.10
8910;DHT22;4490;49.072;8.804;2024-03-29T07:02:58;11.50;65.70
8910;DHT22;4490;49.072;8.804;2024-03-29T07:05:24;11.60;65.70
8910;DHT22;4490;49.072;8.804;2024-03-29T07:07:49;11.70;65.50
8910;DHT22;4490;49.072;8.804;2024-03-29T07:10:15;11.70;65.40
8910;DHT22;4490;49.072;8.804;2024-03-29T07:12:40;11.80;65.40
8910;DHT22;4490;49.072;8.804;2024-03-29T07:15:06;11.90;65.40
8910;DHT22;4490;49.072;8.804;2024-03-29T07:17:32;12.00;65.50
8910;DHT22;4490;49.072;8.804;2024-03-29T07:19:58;12.10;65.50
8910;DHT22;4490;49.072;8.804;2024-03-29T07:22:23;12.20;65.40
8910;DHT22;4490;49.072;8.804;2024-03-29T07:24:49;12.30;65.40
8910;DHT22;4490;49.072;8.804;2024-03-29T07:27:14;12.40;65.50
8910;DHT22;4490;49.072;8.804;2024-03-29T07:29:43;12.40;65.30
8910;DHT22;4490;49.072;8.804;2024-03-29T07:32:09;12.40;64.90
8910;DHT22;4490;49.072;8.804;2024-03-29T07:34:35;12.40;64.40
8910;DHT22;4490;49.072;8.804;2024-03-29T07:37:01;12.50;64.90
8910;DHT22;4490;49.072;8.804;2024-03-29T07:39:27;12.50;63.80
8910;DHT22;4490;49.072;8.804;2024-03-29T07:41:53;12.50;64.10
8910;DHT22;4490;49.072;8.804;2024-03-29T07:44:18;12.60;64.40
8910;DHT22;4490;49.072;8.804;2024-03-29T07:46:44;12.60;65.40
8910;DHT22;4490;49.072;8.804;2024-03-29T07:49:12;12.50;66.40
8910;DHT22;4490;49.072;8.804;2024-03-29T07:51:38;12.50;68.00
8910;DHT22;4490;49.072;8.804;2024-03-29T07:54:04;12.40;69.80
8910;DHT22;4490;49.072;8.804;2024-03-29T07:56:30;12.30;71.30
8910;DHT22;4490;49.072;8.804;2024-03-29T07:58:55;12.20;73.10
8910;DHT22;4490;49.072;8.804;2024-03-29T08:01:21;12.10;74.80
8910;DHT22;4490;49.072;8.804;2024-03-29T08:03:50;12.00;76.30
8910;DHT22;4490;49.072;8.804;2024-03-29T08:06:15;11.90;77.30
8910;DHT22;4490;49.072;8.804;2024-03-29T08:08:44;11.80;78.40
8910;DHT22;4490;49.072;8.804;2024-03-29T08:11:10;11.60;78.80
8910;DHT22;4490;49.072;8.804;2024-03-29T08:13:37;11.50;79.10
8910;DHT22;4490;49.072;8.804;2024-03-29T08:16:03;11.40;79.80
8910;DHT22;4490;49.072;8.804;2024-03-29T08:18:30;11.30;80.00
8910;DHT22;4490;49.072;8.804;2024-03-29T08:20:56;11.20;80.70
8910;DHT22;4490;49.072;8.804;2024-03-29T08:23:23;11.20;81.30
8910;DHT22;4490;49.072;8.804;2024-03-29T08:25:48;11.00;81.70
8910;DHT22;4490;49.072;8.804;2024-03-29T08:28:15;11.00;82.30
8910;DHT22;4490;49.072;8.804;2024-03-29T08:30:40;10.90;82.70
8910;DHT22;4490;49.072;8.804;2024-03-29T08:33:06;10.90;83.30
8910;DHT22;4490;49.072;8.804;2024-03-29T08:35:33;10.80;83.50
8910;DHT22;4490;49.072;8.804;2024-03-29T08:37:59;10.80;84.10
8910;DHT22;4490;49.072;8.804;2024-03-29T08:40:28;10.70;85.50
8910;DHT22;4490;49.072;8.804;2024-03-29T08:42:59;10.70;85.50
8910;DHT22;4490;49.072;8.804;2024-03-29T08:45:25;10.60;85.50
8910;DHT22;4490;49.072;8.804;2024-03-29T08:47:50;10.50;86.70
8910;DHT22;4490;49.072;8.804;2024-03-29T08:50:16;10.50;87.10
8910;DHT22;4490;49.072;8.804;2024-03-29T08:52:42;10.40;88.30
8910;DHT22;4490;49.072;8.804;2024-03-29T08:55:10;10.20;88.90
8910;DHT22;4490;49.072;8.804;2024-03-29T08:57:36;10.20;90.40
8910;DHT22;4490;49.072;8.804;2024-03-29T09:00:02;10.10;91.50
8910;DHT22;4490;49.072;8.804;2024-03-29T09:02:28;10.00;93.00
8910;DHT22;4490;49.072;8.804;2024-03-29T09:04:54;10.00;95.10
8910;DHT22;4490;49.072;8.804;2024-03-29T09:07:20;10.00;96.80
8910;DHT22;4490;49.072;8.804;2024-03-29T09:09:48;9.90;99.70
8910;DHT22;4490;49.072;8.804;2024-03-29T09:12:14;9.90;99.90
8910;DHT22;4490;49.072;8.804;2024-03-29T09:14:40;9.90;99.90
8910;DHT22;4490;49.072;8.804;2024-03-29T09:17:05;9.90;99.90
8910;DHT22;4490;49.072;8.804;2024-03-29T09:19:32;10.00;99.90
8910;DHT22;4490;49.072;8.804;2024-03-29T09:21:58;10.00;99.90
8910;DHT22;4490;49.072;8.804;2024-03-29T09:24:24;10.10;99.90
8910;DHT22;4490;49.072;8.804;2024-03-29T09:26:51;10.20;99.90
8910;DHT22;4490;49.072;8.804;2024-03-29T09:29:17;10.30;99.90
8910;DHT22;4490;49.072;8.804;2024-03-29T09:31:45;10.40;99.90
8910;DHT22;4490;49.072;8.804;2024-03-29T09:34:11;10.50;99.90
8910;DHT22;4490;49.072;8.804;2024-03-29T09:36:36;10.60;99.90
8910;DHT22;4490;49.072;8.804;2024-03-29T09:39:02;10.70;99.90
8910;DHT22;4490;49.072;8.804;2024-03-29T09:41:31;10.80;99.90
8910;DHT22;4490;49.072;8.804;2024-03-29T09:44:02;10.80;99.90
8910;DHT22;4490;49.072;8.804;2024-03-29T09:46:28;10.90;99.90
8910;DHT22;4490;49.072;8.804;2024-03-29T09:48:55;11.00;99.90
8910;DHT22;4490;49.072;8.804;2024-03-29T09:51:21;11.10;99.90
8910;DHT22;4490;49.072;8.804;2024-03-29T09:53:47;11.20;99.90
8910;DHT22;4490;49.072;8.804;2024-03-29T09:56:14;11.30;99.90
8910;DHT22;4490;49.072;8.804;2024-03-29T09:58:39;11.40;99.90
8910;DHT22;4490;49.072;8.804;2024-03-29T10:01:07;11.50;99.90
8910;DHT22;4490;49.072;8.804;2024-03-29T10:03:40;11.70;99.90
8910;DHT22;4490;49.072;8.804;2024-03-29T10:06:06;11.80;99.90
8910;DHT22;4490;49.072;8.804;2024-03-29T10:08:34;11.90;99.90
8910;DHT22;4490;49.072;8.804;2024-03-29T10:11:01;11.90;99.90
8910;DHT22;4490;49.072;8.804;2024-03-29T10:13:26;12.00;99.90
8910;DHT22;4490;49.072;8.804;2024-03-29T10:15:53;12.20;99.90
8910;DHT22;4490;49.072;8.804;2024-03-29T10:18:21;12.20;99.90
8910;DHT22;4490;49.072;8.804;2024-03-29T10:21:01;12.30;99.90
8910;DHT22;4490;49.072;8.804;2024-03-29T10:23:27;12.40;99.90
8910;DHT22;4490;49.072;8.804;2024-03-29T10:25:53;12.40;99.90
8910;DHT22;4490;49.072;8.804;2024-03-29T10:28:19;12.50;99.90
8910;DHT22;4490;49.072;8.804;2024-03-29T10:30:45;12.50;99.90
8910;DHT22;4490;49.072;8.804;2024-03-29T10:33:12;12.60;99.90
8910;DHT22;4490;49.072;8.804;2024-03-29T10:35:44;12.60;99.90
8910;DHT22;4490;49.072;8.804;2024-03-29T10:38:10;12.70;99.90
8910;DHT22;4490;49.072;8.804;2024-03-29T10:40:40;12.70;99.90
8910;DHT22;4490;49.072;8.804;2024-03-29T10:43:11;12.70;99.90
8910;DHT22;4490;49.072;8.804;2024-03-29T10:45:42;12.70;99.90
8910;DHT22;4490;49.072;8.804;2024-03-29T10:48:09;12.80;99.90
8910;DHT22;4490;49.072;8.804;2024-03-29T10:50:36;12.90;99.90
8910;DHT22;4490;49.072;8.804;2024-03-29T10:53:03;13.00;99.90
8910;DHT22;4490;49.072;8.804;2024-03-29T10:55:37;13.10;99.90
8910;DHT22;4490;49.072;8.804;2024-03-29T10:58:05;13.30;99.90
8910;DHT22;4490;49.072;8.804;2024-03-29T11:00:47;13.40;99.90
8910;DHT22;4490;49.072;8.804;2024-03-29T11:03:41;13.70;99.90
8910;DHT22;4490;49.072;8.804;2024-03-29T11:06:12;14.00;99.90
8910;DHT22;4490;49.072;8.804;2024-03-29T11:08:39;14.30;99.90
8910;DHT22;4490;49.072;8.804;2024-03-29T11:11:12;14.50;99.90
8910;DHT22;4490;49.072;8.804;2024-03-29T11:13:53;14.80;99.90
8910;DHT22;4490;49.072;8.804;2024-03-29T11:16:19;15.00;99.90
8910;DHT22;4490;49.072;8.804;2024-03-29T11:18:46;15.10;99.90
8910;DHT22;4490;49.072;8.804;2024-03-29T11:21:13;15.30;99.90
8910;DHT22;4490;49.072;8.804;2024-03-29T11:23:53;15.30;99.90
8910;DHT22;4490;49.072;8.804;2024-03-29T11:26:19;15.40;99.90
8910;DHT22;4490;49.072;8.804;2024-03-29T11:28:50;15.30;99.90
8910;DHT22;4490;49.072;8.804;2024-03-29T11:31:16;15.30;99.90
8910;DHT22;4490;49.072;8.804;2024-03-29T11:33:44;15.30;99.90
8910;DHT22;4490;49.072;8.804;2024-03-29T11:36:13;15.20;99.90
8910;DHT22;4490;49.072;8.804;2024-03-29T11:38:39;15.20;99.90
8910;DHT22;4490;49.072;8.804;2024-03-29T11:41:11;15.10;99.90
8910;DHT22;4490;49.072;8.804;2024-03-29T11:43:37;15.10;99.90
8910;DHT22;4490;49.072;8.804;2024-03-29T11:46:08;15.10;99.90
8910;DHT22;4490;49.072;8.804;2024-03-29T11:48:34;15.10;99.90
8910;DHT22;4490;49.072;8.804;2024-03-29T11:51:02;15.00;99.90
8910;DHT22;4490;49.072;8.804;2024-03-29T11:53:29;15.00;99.90
8910;DHT22;4490;49.072;8.804;2024-03-29T11:56:04;15.00;99.90
8910;DHT22;4490;49.072;8.804;2024-03-29T11:58:33;15.00;99.90
8910;DHT22;4490;49.072;8.804;2024-03-29T12:00:59;15.00;99.90
8910;DHT22;4490;49.072;8.804;2024-03-29T12:03:26;15.00;99.90
8910;DHT22;4490;49.072;8.804;2024-03-29T12:05:53;14.90;99.90
8910;DHT22;4490;49.072;8.804;2024-03-29T12:08:24;14.80;99.90
8910;DHT22;4490;49.072;8.804;2024-03-29T12:10:49;14.80;99.90
8910;DHT22;4490;49.072;8.804;2024-03-29T12:13:16;14.70;99.90
8910;DHT22;4490;49.072;8.804;2024-03-29T12:15:43;14.70;99.90
8910;DHT22;4490;49.072;8.804;2024-03-29T12:18:09;14.70;99.90
8910;DHT22;4490;49.072;8.804;2024-03-29T12:20:35;14.70;99.90
8910;DHT22;4490;49.072;8.804;2024-03-29T12:23:05;14.50;99.90
8910;DHT22;4490;49.072;8.804;2024-03-29T12:25:33;14.50;99.90
8910;DHT22;4490;49.072;8.804;2024-03-29T12:28:00;14.40;99.90
8910;DHT22;4490;49.072;8.804;2024-03-29T12:30:27;14.30;99.90
8910;DHT22;4490;49.072;8.804;2024-03-29T12:33:06;14.20;99.90
8910;DHT22;4490;49.072;8.804;2024-03-29T12:35:33;14.20;99.90
8910;DHT22;4490;49.072;8.804;2024-03-29T12:38:00;14.10;99.90
8910;DHT22;4490;49.072;8.804;2024-03-29T12:40:28;14.00;99.90
8910;DHT22;4490;49.072;8.804;2024-03-29T12:42:56;13.90;99.90
8910;DHT22;4490;49.072;8.804;2024-03-29T12:45:22;13.90;99.90
8910;DHT22;4490;49.072;8.804;2024-03-29T12:47:49;13.80;99.90
8910;DHT22;4490;49.072;8.804;2024-03-29T12:50:23;13.80;99.90
8910;DHT22;4490;49.072;8.804;2024-03-29T12:52:49;13.80;99.90
8910;DHT22;4490;49.072;8.804;2024-03-29T12:55:15;13.70;99.90
8910;DHT22;4490;49.072;8.804;2024-03-29T12:57:44;13.70;99.90
8910;DHT22;4490;49.072;8.804;2024-03-29T13:00:10;13.70;99.90
8910;DHT22;4490;49.072;8.804;2024-03-29T13:02:37;13.80;99.90
8910;DHT22;4490;49.072;8.804;2024-03-29T13:05:06;13.80;99.90
8910;DHT22;4490;49.072;8.804;2024-03-29T13:07:32;13.80;99.90
8910;DHT22;4490;49.072;8.804;2024-03-29T13:09:59;13.90;99.90
8910;DHT22;4490;49.072;8.804;2024-03-29T13:12:31;13.90;99.90
8910;DHT22;4490;49.072;8.804;2024-03-29T13:14:56;13.90;99.90
8910;DHT22;4490;49.072;8.804;2024-03-29T13:17:22;14.00;99.90
8910;DHT22;4490;49.072;8.804;2024-03-29T13:19:47;14.00;99.90
8910;DHT22;4490;49.072;8.804;2024-03-29T13:22:13;14.00;99.90
8910;DHT22;4490;49.072;8.804;2024-03-29T13:24:39;14.00;99.90
8910;DHT22;4490;49.072;8.804;2024-03-29T13:27:04;14.00;99.90
8910;DHT22;4490;49.072;8.804;2024-03-29T13:29:30;14.00;99.90
8910;DHT22;4490;49.072;8.804;2024-03-29T13:31:56;14.00;99.90
8910;DHT22;4490;49.072;8.804;2024-03-29T13:34:25;14.10;99.90
8910;DHT22;4490;49.072;8.804;2024-03-29T13:36:50;14.10;99.90
8910;DHT22;4490;49.072;8.804;2024-03-29T13:39:16;14.00;99.90
8910;DHT22;4490;49.072;8.804;2024-03-29T13:41:42;14.10;99.90
8910;DHT22;4490;49.072;8.804;2024-03-29T13:44:07;14.10;99.90
8910;DHT22;4490;49.072;8.804;2024-03-29T13:46:34;14.10;99.90
8910;DHT22;4490;49.072;8.804;2024-03-29T13:49:00;14.10;99.90
8910;DHT22;4490;49.072;8.804;2024-03-29T13:51:26;14.10;99.90
8910;DHT22;4490;49.072;8.804;2024-03-29T13:53:53;14.10;99.90
8910;DHT22;4490;49.072;8.804;2024-03-29T13:56:21;14.20;99.90
8910;DHT22;4490;49.072;8.804;2024-03-29T13:58:47;14.20;99.90
8910;DHT22;4490;49.072;8.804;2024-03-29T14:01:13;14.20;99.90
8910;DHT22;4490;49.072;8.804;2024-03-29T14:03:39;14.20;99.90
8910;DHT22;4490;49.072;8.804;2024-03-29T14:06:04;14.20;99.90
8910;DHT22;4490;49.072;8.804;2024-03-29T14:08:31;14.30;99.90
8910;DHT22;4490;49.072;8.804;2024-03-29T14:11:00;14.40;99.90
8910;DHT22;4490;49.072;8.804;2024-03-29T14:13:25;14.40;99.90
8910;DHT22;4490;49.072;8.804;2024-03-29T14:15:51;14.50;99.90
8910;DHT22;4490;49.072;8.804;2024-03-29T14:18:16;14.50;99.90
8910;DHT22;4490;49.072;8.804;2024-03-29T14:20:42;14.60;99.90
8910;DHT22;4490;49.072;8.804;2024-03-29T14:23:08;14.60;99.90
8910;DHT22;4490;49.072;8.804;2024-03-29T14:25:36;14.60;99.90
8910;DHT22;4490;49.072;8.804;2024-03-29T14:28:02;14.70;99.90
8910;DHT22;4490;49.072;8.804;2024-03-29T14:30:29;14.70;99.90
8910;DHT22;4490;49.072;8.804;2024-03-29T14:32:57;14.80;99.90
8910;DHT22;4490;49.072;8.804;2024-03-29T14:35:23;14.80;99.90
8910;DHT22;4490;49.072;8.804;2024-03-29T14:37:49;14.80;99.90
8910;DHT22;4490;49.072;8.804;2024-03-29T14:40:15;14.90;99.90
8910;DHT22;4490;49.072;8.804;2024-03-29T14:42:41;14.90;99.90
8910;DHT22;4490;49.072;8.804;2024-03-29T14:45:08;14.90;99.90
8910;DHT22;4490;49.072;8.804;2024-03-29T14:47:37;15.00;99.90
8910;DHT22;4490;49.072;8.804;2024-03-29T14:50:03;15.00;99.90
8910;DHT22;4490;49.072;8.804;2024-03-29T14:52:30;15.00;99.90
8910;DHT22;4490;49.072;8.804;2024-03-29T14:54:56;15.00;99.90
8910;DHT22;4490;49.072;8.804;2024-03-29T14:57:22;15.10;99.90
8910;DHT22;4490;49.072;8.804;2024-03-29T14:59:48;15.10;99.90
8910;DHT22;4490;49.072;8.804;2024-03-29T15:02:14;15.10;99.90
8910;DHT22;4490;49.072;8.804;2024-03-29T15:04:40;15.10;99.90
8910;DHT22;4490;49.072;8.804;2024-03-29T15:07:05;15.20;99.90
8910;DHT22;4490;49.072;8.804;2024-03-29T15:09:32;15.20;99.90
8910;DHT22;4490;49.072;8.804;2024-03-29T15:11:57;15.20;99.90
8910;DHT22;4490;49.072;8.804;2024-03-29T15:14:23;15.20;99.90
8910;DHT22;4490;49.072;8.804;2024-03-29T15:16:49;15.20;99.90
8910;DHT22;4490;49.072;8.804;2024-03-29T15:19:15;15.30;99.90
8910;DHT22;4490;49.072;8.804;2024-03-29T15:21:40;15.30;99.90
8910;DHT22;4490;49.072;8.804;2024-03-29T15:24:08;15.30;99.90
8910;DHT22;4490;49.072;8.804;2024-03-29T15:26:34;15.40;99.90
8910;DHT22;4490;49.072;8.804;2024-03-29T15:29:03;15.40;99.90
8910;DHT22;4490;49.072;8.804;2024-03-29T15:31:42;15.40;99.90
8910;DHT22;4490;49.072;8.804;2024-03-29T15:34:09;15.40;99.90
8910;DHT22;4490;49.072;8.804;2024-03-29T15:36:36;15.40;99.90
8910;DHT22;4490;49.072;8.804;2024-03-29T15:39:03;15.40;99.90
8910;DHT22;4490;49.072;8.804;2024-03-29T15:41:35;15.40;99.90
8910;DHT22;4490;49.072;8.804;2024-03-29T15:44:02;15.40;99.90
8910;DHT22;4490;49.072;8.804;2024-03-29T15:46:29;15.50;99.90
8910;DHT22;4490;49.072;8.804;2024-03-29T15:48:55;15.50;99.90
8910;DHT22;4490;49.072;8.804;2024-03-29T15:51:21;15.50;99.90
8910;DHT22;4490;49.072;8.804;2024-03-29T15:53:48;15.50;99.90
8910;DHT22;4490;49.072;8.804;2024-03-29T15:56:14;15.50;99.90
8910;DHT22;4490;49.072;8.804;2024-03-29T15:58:40;15.50;99.90